Time,TemperatureF,DewpointF,PressureIn,WindDirection,WindDirectionDegrees,WindSpeedMPH,WindSpeedGustMPH,Humidity,HourlyPrecipIn,Conditions,Clouds,dailyrainin,SoftwareType,DateUTC
2013-04-02 00:00:00,65.6,60.3,29.94,North,-999,0.0,0.0,83,0.00,,,-99.99,WeatherLink 5.7,2013-04-02 04:00:00,
2013-04-02 00:15:00,65.2,59.9,29.94,North,-999,0.0,0.0,83,0.00,,,-99.99,WeatherLink 5.7,2013-04-02 04:15:00,
2013-04-02 00:30:00,64.6,59.7,29.93,North,-999,0.0,0.0,84,0.00,,,-99.99,WeatherLink 5.7,2013-04-02 04:30:00,
2013-04-02 00:45:00,64.2,59.6,29.93,North,-999,0.0,0.0,85,0.00,,,-99.99,WeatherLink 5.7,2013-04-02 04:45:00,
2013-04-02 01:00:00,64.3,59.7,29.93,North,-999,0.0,0.0,85,0.00,,,-99.99,WeatherLink 5.7,2013-04-02 05:00:00,
2013-04-02 01:15:00,64.1,59.5,29.92,North,-999,0.0,0.0,85,0.00,,,-99.99,WeatherLink 5.7,2013-04-02 05:15:00,
2013-04-02 01:30:00,63.9,59.6,29.92,North,-999,0.0,0.0,86,0.00,,,-99.99,WeatherLink 5.7,2013-04-02 05:30:00,
2013-04-02 01:45:00,63.7,59.1,29.92,North,-999,0.0,0.0,85,0.00,,,-99.99,WeatherLink 5.7,2013-04-02 05:45:00,
2013-04-02 02:00:00,63.3,58.7,29.92,North,-999,0.0,0.0,85,0.00,,,-99.99,WeatherLink 5.7,2013-04-02 06:00:00,
2013-04-02 02:15:00,62.9,58.3,29.92,North,-999,0.0,0.0,85,0.00,,,-99.99,WeatherLink 5.7,2013-04-02 06:15:00,
2013-04-02 02:30:00,62.4,58.2,29.92,North,-999,0.0,0.0,86,0.00,,,-99.99,WeatherLink 5.7,2013-04-02 06:30:00,
2013-04-02 02:45:00,62.3,58.1,29.92,North,-999,0.0,0.0,86,0.00,,,-99.99,WeatherLink 5.7,2013-04-02 06:45:00,
2013-04-02 03:00:00,62.1,57.9,29.92,North,-999,0.0,0.0,86,0.00,,,-99.99,WeatherLink 5.7,2013-04-02 07:00:00,
2013-04-02 03:15:00,61.9,57.7,29.92,North,-999,0.0,0.0,86,0.00,,,-99.99,WeatherLink 5.7,2013-04-02 07:15:00,
2013-04-02 03:30:00,61.7,57.8,29.92,North,-999,0.0,0.0,87,0.00,,,-99.99,WeatherLink 5.7,2013-04-02 07:30:00,
2013-04-02 03:45:00,61.8,57.9,29.92,North,-999,0.0,0.0,87,0.00,,,-99.99,WeatherLink 5.7,2013-04-02 07:45:00,
2013-04-02 04:00:00,61.6,57.7,29.92,North,-999,0.0,0.0,87,0.00,,,-99.99,WeatherLink 5.7,2013-04-02 08:00:00,
2013-04-02 04:15:00,61.3,57.4,29.92,North,-999,0.0,0.0,87,0.00,,,-99.99,WeatherLink 5.7,2013-04-02 08:15:00,
2013-04-02 04:30:00,61.5,57.9,29.93,North,-999,0.0,0.0,88,0.00,,,-99.99,WeatherLink 5.7,2013-04-02 08:30:00,
2013-04-02 04:45:00,61.6,58.0,29.93,North,-999,0.0,0.0,88,0.00,,,-99.99,WeatherLink 5.7,2013-04-02 08:45:00,
2013-04-02 05:00:00,61.4,57.8,29.93,North,-999,0.0,0.0,88,0.00,,,-99.99,WeatherLink 5.7,2013-04-02 09:00:00,
2013-04-02 05:15:00,61.2,57.6,29.93,North,-999,0.0,0.0,88,0.00,,,-99.99,WeatherLink 5.7,2013-04-02 09:15:00,
2013-04-02 05:30:00,60.8,57.2,29.93,North,-999,0.0,0.0,88,0.00,,,-99.99,WeatherLink 5.7,2013-04-02 09:30:00,
2013-04-02 05:45:00,60.4,56.8,29.93,North,-999,0.0,0.0,88,0.00,,,-99.99,WeatherLink 5.7,2013-04-02 09:45:00,
2013-04-02 06:00:00,59.9,56.3,29.93,North,-999,0.0,0.0,88,0.00,,,-99.99,WeatherLink 5.7,2013-04-02 10:00:00,
2013-04-02 06:15:00,59.6,56.0,29.94,North,-999,0.0,0.0,88,0.00,,,-99.99,WeatherLink 5.7,2013-04-02 10:15:00,
2013-04-02 06:30:00,59.3,55.7,29.94,North,-999,0.0,0.0,88,0.00,,,-99.99,WeatherLink 5.7,2013-04-02 10:30:00,
2013-04-02 06:45:00,59.0,55.4,29.95,North,-999,0.0,0.0,88,0.00,,,-99.99,WeatherLink 5.7,2013-04-02 10:45:00,
2013-04-02 07:00:00,58.9,55.4,29.96,North,-999,0.0,0.0,88,0.00,,,-99.99,WeatherLink 5.7,2013-04-02 11:00:00,
2013-04-02 07:15:00,58.7,55.2,29.96,North,-999,0.0,0.0,88,0.00,,,-99.99,WeatherLink 5.7,2013-04-02 11:15:00,
2013-04-02 07:30:00,58.6,55.4,29.96,North,-999,0.0,0.0,89,0.00,,,-99.99,WeatherLink 5.7,2013-04-02 11:30:00,
2013-04-02 07:45:00,58.6,55.4,29.97,North,-999,0.0,0.0,89,0.00,,,-99.99,WeatherLink 5.7,2013-04-02 11:45:00,
2013-04-02 08:00:00,59.2,56.3,29.97,North,-999,0.0,0.0,90,0.00,,,-99.99,WeatherLink 5.7,2013-04-02 12:00:00,
2013-04-02 08:15:00,60.8,58.5,29.98,North,-999,0.0,0.0,92,0.00,,,-99.99,WeatherLink 5.7,2013-04-02 12:15:00,
2013-04-02 08:30:00,63.0,60.6,29.98,North,-999,0.0,0.0,92,0.00,,,-99.99,WeatherLink 5.7,2013-04-02 12:30:00,
2013-04-02 08:45:00,64.4,62.0,29.98,North,-999,0.0,0.0,92,0.00,,,-99.99,WeatherLink 5.7,2013-04-02 12:45:00,
2013-04-02 09:00:00,65.4,62.4,29.99,North,0,0.0,1.0,90,0.00,,,-99.99,WeatherLink 5.7,2013-04-02 13:00:00,
2013-04-02 09:15:00,66.6,62.9,29.99,North,-999,0.0,0.0,88,0.00,,,-99.99,WeatherLink 5.7,2013-04-02 13:15:00,
2013-04-02 09:30:00,67.9,63.6,29.99,North,-999,0.0,0.0,86,0.00,,,-99.99,WeatherLink 5.7,2013-04-02 13:30:00,
2013-04-02 09:45:00,69.0,64.6,30.00,North,-999,0.0,0.0,86,0.00,,,-99.99,WeatherLink 5.7,2013-04-02 13:45:00,
2013-04-02 10:00:00,70.3,64.5,30.00,North,-999,0.0,0.0,82,0.00,,,-99.99,WeatherLink 5.7,2013-04-02 14:00:00,
2013-04-02 10:15:00,71.0,65.2,30.00,North,-999,0.0,0.0,82,0.00,,,-99.99,WeatherLink 5.7,2013-04-02 14:15:00,
2013-04-02 10:30:00,71.8,65.3,30.00,North,-999,0.0,0.0,80,0.00,,,-99.99,WeatherLink 5.7,2013-04-02 14:30:00,
2013-04-02 10:45:00,72.7,65.4,30.00,North,-999,0.0,0.0,78,0.00,,,-99.99,WeatherLink 5.7,2013-04-02 14:45:00,
2013-04-02 11:00:00,73.5,65.8,30.00,North,-999,0.0,0.0,77,0.00,,,-99.99,WeatherLink 5.7,2013-04-02 15:00:00,
2013-04-02 11:15:00,74.4,66.3,30.00,North,-999,0.0,0.0,76,0.00,,,-99.99,WeatherLink 5.7,2013-04-02 15:15:00,
2013-04-02 11:30:00,75.6,66.3,30.00,North,-999,0.0,0.0,73,0.00,,,-99.99,WeatherLink 5.7,2013-04-02 15:30:00,
2013-04-02 11:45:00,76.6,66.5,29.99,North,-999,0.0,0.0,71,0.00,,,-99.99,WeatherLink 5.7,2013-04-02 15:45:00,
2013-04-02 12:00:00,77.3,66.7,29.99,North,-999,0.0,0.0,70,0.00,,,-99.99,WeatherLink 5.7,2013-04-02 16:00:00,
2013-04-02 12:15:00,77.8,66.4,29.99,North,0,2.0,10.0,68,0.00,,,-99.99,WeatherLink 5.7,2013-04-02 16:15:00,
2013-04-02 12:30:00,77.9,66.1,29.99,North,0,0.0,9.0,67,0.00,,,-99.99,WeatherLink 5.7,2013-04-02 16:30:00,
2013-04-02 12:45:00,77.7,65.9,29.99,North,0,1.0,7.0,67,0.00,,,-99.99,WeatherLink 5.7,2013-04-02 16:45:00,
2013-04-02 13:00:00,77.2,65.4,29.99,North,0,1.0,9.0,67,0.00,,,-99.99,WeatherLink 5.7,2013-04-02 17:00:00,
2013-04-02 13:15:00,76.7,64.9,29.98,North,0,0.0,6.0,67,0.00,,,-99.99,WeatherLink 5.7,2013-04-02 17:15:00,
2013-04-02 13:30:00,76.4,65.1,29.97,North,0,0.0,1.0,68,0.00,,,-99.99,WeatherLink 5.7,2013-04-02 17:30:00,
2013-04-02 13:45:00,76.4,64.6,29.96,North,0,0.0,6.0,67,0.00,,,-99.99,WeatherLink 5.7,2013-04-02 17:45:00,
2013-04-02 14:00:00,76.6,64.4,29.96,North,0,0.0,1.0,66,0.00,,,-99.99,WeatherLink 5.7,2013-04-02 18:00:00,
2013-04-02 14:15:00,76.7,64.5,29.96,North,0,0.0,6.0,66,0.00,,,-99.99,WeatherLink 5.7,2013-04-02 18:15:00,
2013-04-02 14:30:00,76.9,64.7,29.95,North,0,0.0,6.0,66,0.00,,,-99.99,WeatherLink 5.7,2013-04-02 18:30:00,
2013-04-02 14:45:00,77.1,64.4,29.94,North,0,0.0,1.0,65,0.00,,,-99.99,WeatherLink 5.7,2013-04-02 18:45:00,
2013-04-02 15:00:00,77.4,64.7,29.94,North,-999,0.0,0.0,65,0.00,,,-99.99,WeatherLink 5.7,2013-04-02 19:00:00,
2013-04-02 15:15:00,77.3,64.6,29.94,North,0,0.0,3.0,65,0.00,,,-99.99,WeatherLink 5.7,2013-04-02 19:15:00,
2013-04-02 15:30:00,77.0,63.9,29.94,North,0,0.0,3.0,64,0.00,,,-99.99,WeatherLink 5.7,2013-04-02 19:30:00,
2013-04-02 15:45:00,76.7,64.0,29.94,North,0,0.0,1.0,65,0.00,,,-99.99,WeatherLink 5.7,2013-04-02 19:45:00,
2013-04-02 16:00:00,76.8,64.1,29.93,North,0,0.0,6.0,65,0.00,,,-99.99,WeatherLink 5.7,2013-04-02 20:00:00,
2013-04-02 16:15:00,76.7,63.6,29.93,North,0,1.0,10.0,64,0.00,,,-99.99,WeatherLink 5.7,2013-04-02 20:15:00,
2013-04-02 16:30:00,76.5,63.4,29.94,North,0,1.0,7.0,64,0.00,,,-99.99,WeatherLink 5.7,2013-04-02 20:30:00,
2013-04-02 16:45:00,76.5,63.4,29.94,North,0,0.0,7.0,64,0.00,,,-99.99,WeatherLink 5.7,2013-04-02 20:45:00,
2013-04-02 17:00:00,76.8,63.2,29.94,North,0,0.0,7.0,63,0.00,,,-99.99,WeatherLink 5.7,2013-04-02 21:00:00,
2013-04-02 17:15:00,77.3,63.3,29.94,North,-999,0.0,0.0,62,0.00,,,-99.99,WeatherLink 5.7,2013-04-02 21:15:00,
2013-04-02 17:30:00,78.2,63.2,29.94,North,0,0.0,1.0,60,0.00,,,-99.99,WeatherLink 5.7,2013-04-02 21:30:00,
2013-04-02 17:45:00,78.3,62.8,29.94,North,0,0.0,3.0,59,0.00,,,-99.99,WeatherLink 5.7,2013-04-02 21:45:00,
2013-04-02 18:00:00,77.3,61.9,29.94,North,0,0.0,6.0,59,0.00,,,-99.99,WeatherLink 5.7,2013-04-02 22:00:00,
2013-04-02 18:15:00,75.9,60.5,29.94,North,0,0.0,1.0,59,0.00,,,-99.99,WeatherLink 5.7,2013-04-02 22:15:00,
2013-04-02 18:30:00,74.6,59.3,29.94,North,0,0.0,1.0,59,0.00,,,-99.99,WeatherLink 5.7,2013-04-02 22:30:00,
2013-04-02 18:45:00,73.6,58.9,29.94,North,-999,0.0,0.0,60,0.00,,,-99.99,WeatherLink 5.7,2013-04-02 22:45:00,
2013-04-02 19:00:00,73.0,58.3,29.94,North,-999,0.0,0.0,60,0.00,,,-99.99,WeatherLink 5.7,2013-04-02 23:00:00,
2013-04-02 19:15:00,72.5,58.3,29.94,North,-999,0.0,0.0,61,0.00,,,-99.99,WeatherLink 5.7,2013-04-02 23:15:00,
2013-04-02 19:30:00,71.8,58.1,29.94,North,-999,0.0,0.0,62,0.00,,,-99.99,WeatherLink 5.7,2013-04-02 23:30:00,
2013-04-02 19:45:00,70.9,57.7,29.94,North,-999,0.0,0.0,63,0.00,,,-99.99,WeatherLink 5.7,2013-04-02 23:45:00,
2013-04-02 20:00:00,70.1,57.8,29.95,North,-999,0.0,0.0,65,0.00,,,-99.99,WeatherLink 5.7,2013-04-03 00:00:00,
2013-04-02 20:15:00,69.4,57.5,29.95,North,-999,0.0,0.0,66,0.00,,,-99.99,WeatherLink 5.7,2013-04-03 00:15:00,
2013-04-02 20:30:00,68.7,58.1,29.95,North,-999,0.0,0.0,69,0.00,,,-99.99,WeatherLink 5.7,2013-04-03 00:30:00,
2013-04-02 20:45:00,68.1,57.9,29.96,North,-999,0.0,0.0,70,0.00,,,-99.99,WeatherLink 5.7,2013-04-03 00:45:00,
2013-04-02 21:00:00,67.4,57.3,29.96,North,-999,0.0,0.0,70,0.00,,,-99.99,WeatherLink 5.7,2013-04-03 01:00:00,
2013-04-02 21:15:00,66.7,57.0,29.96,North,-999,0.0,0.0,71,0.00,,,-99.99,WeatherLink 5.7,2013-04-03 01:15:00,
2013-04-02 21:30:00,66.2,57.3,29.96,North,-999,0.0,0.0,73,0.00,,,-99.99,WeatherLink 5.7,2013-04-03 01:30:00,
2013-04-02 21:45:00,65.8,57.7,29.95,North,-999,0.0,0.0,75,0.00,,,-99.99,WeatherLink 5.7,2013-04-03 01:45:00,
2013-04-02 22:00:00,65.4,57.3,29.96,North,-999,0.0,0.0,75,0.00,,,-99.99,WeatherLink 5.7,2013-04-03 02:00:00,
2013-04-02 22:15:00,64.8,57.4,29.97,North,-999,0.0,0.0,77,0.00,,,-99.99,WeatherLink 5.7,2013-04-03 02:15:00,
2013-04-02 22:30:00,64.8,58.1,29.99,North,-999,0.0,0.0,79,0.00,,,-99.99,WeatherLink 5.7,2013-04-03 02:30:00,
2013-04-02 22:45:00,64.9,57.9,29.99,North,-999,0.0,0.0,78,0.00,,,-99.99,WeatherLink 5.7,2013-04-03 02:45:00,
2013-04-02 23:00:00,64.8,58.1,30.00,North,-999,0.0,0.0,79,0.00,,,-99.99,WeatherLink 5.7,2013-04-03 03:00:00,
2013-04-02 23:15:00,64.7,58.0,30.00,North,-999,0.0,0.0,79,0.00,,,-99.99,WeatherLink 5.7,2013-04-03 03:15:00,
2013-04-02 23:30:00,64.7,58.0,29.99,North,-999,0.0,0.0,79,0.00,,,-99.99,WeatherLink 5.7,2013-04-03 03:30:00,
2013-04-02 23:45:00,64.9,58.2,29.99,North,-999,0.0,0.0,79,0.00,,,-99.99,WeatherLink 5.7,2013-04-03 03:45:00,